Time;durP1;ratioP1;P1;durP2;ratioP2;P2;SDS_P1;SDS_P2;PMS_P1;PMS_P2;Temp;Humidity;BMP_temperature;BMP_pressure;BME280_temperature;BME280_humidity;BME280_pressure;Samples;Min_cycle;Max_cycle;Signal;HPM_P1;HPM_P2
2023/05/21 00:02:16;;;;;;;0.32;0.20;;;11.00;99.90;;;9.74;100.00;101890.72;5062086;28;20069;-71
2023/05/21 00:04:43;;;;;;;0.90;0.52;;;11.00;99.90;;;9.75;100.00;101889.81;5063289;28;20034;-71
2023/05/21 00:07:10;;;;;;;0.30;0.30;;;11.00;99.90;;;9.77;100.00;101886.25;5062287;28;20042;-71
2023/05/21 00:09:37;;;;;;;0.98;0.65;;;11.00;99.90;;;9.78;100.00;101885.38;5064210;28;20102;-70
2023/05/21 00:12:07;;;;;;;3.95;0.57;;;11.00;99.90;;;9.77;100.00;101880.13;5063517;28;20044;-71
2023/05/21 00:14:34;;;;;;;0.47;0.30;;;11.00;99.90;;;9.78;100.00;101882.72;5063403;28;20034;-71
2023/05/21 00:17:00;;;;;;;0.60;0.40;;;11.00;99.90;;;9.80;100.00;101880.91;5054825;28;20038;-71
2023/05/21 00:19:26;;;;;;;2.58;0.70;;;11.00;99.90;;;9.80;100.00;101886.16;5065565;28;20182;-71
2023/05/21 00:21:53;;;;;;;0.60;0.40;;;11.00;99.90;;;9.83;100.00;101879.97;5063360;28;20133;-70
2023/05/21 00:24:19;;;;;;;1.85;0.55;;;11.00;99.90;;;9.81;100.00;101880.00;4999349;28;20026;-71
2023/05/21 00:26:45;;;;;;;0.70;0.47;;;11.00;99.90;;;9.80;100.00;101877.41;5064270;28;20524;-70
2023/05/21 00:29:10;;;;;;;;;;;11.00;99.90;;;9.82;99.73;101872.97;5063890;28;20037;-71
2023/05/21 00:31:36;;;;;;;1.13;0.77;;;11.00;99.90;;;9.78;100.00;101871.31;5062180;28;19922;-70
2023/05/21 00:34:02;;;;;;;0.90;0.50;;;11.00;99.90;;;9.79;100.00;101876.56;5050634;28;20478;-70
2023/05/21 00:36:29;;;;;;;;;;;11.00;99.90;;;9.81;100.00;101872.13;4997801;28;20397;-70
2023/05/21 00:38:55;;;;;;;0.98;0.38;;;11.00;99.90;;;9.78;100.00;101861.69;4999292;28;20000;-70
2023/05/21 00:41:22;;;;;;;1.13;0.60;;;11.00;99.90;;;9.78;100.00;101874.84;5062503;28;20109;-70
2023/05/21 00:43:47;;;;;;;2.58;1.08;;;11.00;99.90;;;9.80;100.00;101861.63;5001374;28;20079;-70
2023/05/21 00:46:20;;;;;;;2.08;0.65;;;11.00;99.90;;;9.83;100.00;101864.19;5003098;28;20045;-71
2023/05/21 00:48:47;;;;;;;3.45;1.02;;;11.00;99.90;;;9.85;100.00;101867.66;5051204;28;20034;-71
2023/05/21 00:51:17;;;;;;;1.23;0.45;;;11.00;99.90;;;9.88;100.00;101861.44;5045354;28;20059;-71
2023/05/21 00:53:45;;;;;;;2.28;0.70;;;11.10;99.90;;;9.90;100.00;101857.88;5066053;28;20041;-70
2023/05/21 00:56:11;;;;;;;1.08;0.88;;;11.10;99.90;;;9.94;100.00;101853.41;5059827;28;20044;-71
2023/05/21 00:58:39;;;;;;;1.65;0.80;;;11.10;99.90;;;9.97;100.00;101856.78;5066068;28;20371;-71
2023/05/21 01:01:05;;;;;;;1.13;0.60;;;11.20;99.90;;;10.00;100.00;101866.38;5004244;28;20134;-70
2023/05/21 01:03:37;;;;;;;0.63;0.30;;;11.20;99.90;;;10.03;100.00;101859.28;5067160;28;20037;-71
2023/05/21 01:06:08;;;;;;;2.90;0.68;;;11.20;99.90;;;10.09;100.00;101854.78;5067281;28;21053;-72
2023/05/21 01:08:36;;;;;;;1.25;0.55;;;11.30;99.90;;;10.16;100.00;101856.31;5067824;28;20044;-71
2023/05/21 01:11:03;;;;;;;1.17;0.57;;;11.30;99.90;;;10.22;100.00;101853.53;5066742;28;20049;-70
2023/05/21 01:13:31;;;;;;;7.63;0.90;;;11.40;99.90;;;10.29;100.00;101852.47;5082291;28;20529;-70
2023/05/21 01:15:58;;;;;;;1.15;0.52;;;11.50;99.90;;;10.36;100.00;101855.81;5066983;28;20034;-71
2023/05/21 01:18:25;;;;;;;1.20;0.40;;;11.50;99.90;;;10.41;100.00;101846.88;5065218;28;20494;-71
2023/05/21 01:20:51;;;;;;;0.47;0.40;;;11.60;99.90;;;10.48;100.00;101847.56;5065779;28;20064;-71
2023/05/21 01:23:18;;;;;;;0.85;0.52;;;11.70;99.90;;;10.53;100.00;101850.94;5001195;28;20162;-71
2023/05/21 01:25:45;;;;;;;0.68;0.45;;;11.70;99.90;;;10.60;100.00;101846.34;5049552;28;20045;-70
2023/05/21 01:28:12;;;;;;;0.63;0.63;;;11.80;99.90;;;10.66;100.00;101847.03;5065896;28;20121;-71
2023/05/21 01:30:40;;;;;;;0.77;0.50;;;11.80;99.90;;;10.73;100.00;101846.84;5065907;28;20034;-70
2023/05/21 01:33:35;;;;;;;0.75;0.28;;;11.90;99.90;;;10.77;100.00;101841.44;5065886;28;20030;-71
2023/05/21 01:36:25;;;;;;;0.52;0.45;;;12.00;99.90;;;10.81;100.00;101845.72;5000458;28;20838;-71
2023/05/21 01:39:08;;;;;;;1.50;0.85;;;12.00;99.90;;;10.84;100.00;101835.09;5058352;28;20044;-71
2023/05/21 01:41:39;;;;;;;1.27;0.65;;;12.00;99.90;;;10.88;100.00;101834.09;5088470;27;20056;-71
2023/05/21 01:44:07;;;;;;;3.20;1.25;;;12.10;99.90;;;10.92;100.00;101834.84;5002074;28;20065;-71
2023/05/21 01:46:37;;;;;;;1.58;0.85;;;12.10;99.90;;;10.97;100.00;101829.44;5066347;28;20058;-70
2023/05/21 01:49:06;;;;;;;2.60;1.08;;;12.10;99.90;;;11.02;100.00;101838.09;5064458;28;20041;-72
2023/05/21 01:51:33;;;;;;;1.80;0.80;;;12.20;99.90;;;11.09;100.00;101832.56;5064017;28;20561;-70
2023/05/21 01:54:00;;;;;;;0.60;0.52;;;12.30;99.90;;;11.15;100.00;101839.44;5065330;28;20026;-71
2023/05/21 01:56:27;;;;;;;3.63;0.90;;;12.30;99.90;;;11.21;100.00;101839.25;5076986;28;20022;-70
2023/05/21 01:58:57;;;;;;;2.17;1.15;;;12.40;99.90;;;11.23;100.00;101832.16;5066213;28;20615;-71
2023/05/21 02:01:22;;;;;;;2.47;1.08;;;12.40;99.90;;;11.32;100.00;101827.47;5063690;28;20696;-72
2023/05/21 02:03:48;;;;;;;1.42;0.77;;;12.50;99.90;;;11.36;100.00;101831.72;5065485;28;20046;-71
2023/05/21 02:06:14;;;;;;;;;;;12.40;99.90;;;11.41;100.00;101825.41;5066485;28;20046;-71
2023/05/21 02:08:40;;;;;;;1.38;0.93;;;12.50;99.90;;;11.46;100.00;101822.63;5063719;28;19928;-71
2023/05/21 02:11:06;;;;;;;4.43;1.63;;;12.60;99.90;;;11.47;100.00;101819.09;5073559;28;20559;-70
2023/05/21 02:13:32;;;;;;;;;;;12.60;99.90;;;11.54;100.00;101817.97;5001105;28;20049;-71
2023/05/21 02:15:58;;;;;;;1.63;1.05;;;12.60;99.90;;;11.55;100.00;101809.13;5003785;28;20013;-71
2023/05/21 02:18:25;;;;;;;2.70;1.23;;;12.70;99.90;;;11.58;100.00;101809.03;5066053;28;20040;-70
2023/05/21 02:20:51;;;;;;;2.65;1.63;;;12.70;99.90;;;11.60;100.00;101814.28;5064550;28;20049;-70
2023/05/21 02:23:17;;;;;;;0.90;0.63;;;12.70;99.90;;;11.60;100.00;101806.34;5000382;28;20031;-71
2023/05/21 02:25:42;;;;;;;2.38;1.10;;;12.70;99.90;;;11.63;100.00;101816.78;5001478;28;20094;-71
2023/05/21 02:28:08;;;;;;;5.97;1.23;;;12.70;99.90;;;11.64;100.00;101813.22;5001107;28;20462;-71
2023/05/21 02:30:34;;;;;;;2.42;1.10;;;12.80;99.90;;;11.64;100.00;101808.84;5065401;28;20046;-71
2023/05/21 02:33:01;;;;;;;1.67;1.10;;;12.80;99.90;;;11.64;100.00;101795.66;5065012;28;20049;-71
2023/05/21 02:35:27;;;;;;;1.30;0.93;;;12.80;99.90;;;11.65;100.00;101799.13;5065148;28;20030;-71
2023/05/21 02:37:57;;;;;;;1.58;1.10;;;12.80;99.90;;;11.69;100.00;101803.41;5065027;28;20044;-72
2023/05/21 02:40:24;;;;;;;1.23;1.02;;;12.80;99.90;;;11.69;100.00;101804.25;5001148;28;20097;-71
2023/05/21 02:42:49;;;;;;;2.22;1.33;;;12.80;99.90;;;11.70;100.00;101799.81;5064208;28;20519;-71
2023/05/21 02:45:15;;;;;;;2.10;1.17;;;12.80;99.90;;;11.65;100.00;101801.78;5066081;28;20040;-71
2023/05/21 02:47:41;;;;;;;;;;;12.80;99.90;;;11.60;100.00;101801.06;5002079;28;20045;-71
2023/05/21 02:50:08;;;;;;;1.40;0.88;;;12.70;99.90;;;11.54;100.00;101803.91;5065455;28;19928;-71
2023/05/21 02:52:34;;;;;;;1.73;1.15;;;12.70;99.90;;;11.48;99.77;101799.69;5063861;28;20398;-71
2023/05/21 02:55:00;;;;;;;1.95;0.90;;;12.60;99.90;;;11.45;99.65;101799.81;5065091;28;20034;-71
2023/05/21 02:57:26;;;;;;;;;;;12.60;99.90;;;11.46;99.86;101790.97;5064874;28;20060;-73
2023/05/21 02:59:51;;;;;;;1.60;0.77;;;12.60;99.90;;;11.52;100.00;101798.69;5064856;28;19913;-71
2023/05/21 03:02:17;;;;;;;;;;;12.60;99.90;;;11.93;100.00;101796.44;5064824;28;20050;-70
2023/05/21 03:04:46;;;;;;;1.92;0.95;;;13.60;99.90;;;12.12;100.00;101796.66;5064975;28;19917;-71
2023/05/21 03:07:16;;;;;;;2.00;0.55;;;13.90;99.90;;;12.22;98.87;101794.53;5039872;28;20046;-71
2023/05/21 03:09:42;;;;;;;3.22;1.20;;;14.00;99.90;;;12.21;97.41;101795.44;5062902;28;20036;-71
2023/05/21 03:12:09;;;;;;;2.92;0.75;;;14.00;99.90;;;12.12;95.70;101791.38;5063906;28;20045;-70
2023/05/21 03:14:35;;;;;;;1.33;1.05;;;13.70;99.90;;;12.00;94.87;101790.00;4992650;28;20491;-70
2023/05/21 03:17:07;;;;;;;3.30;0.95;;;13.40;99.90;;;11.90;95.29;101799.19;5064462;28;20095;-70
2023/05/21 03:19:34;;;;;;;2.05;1.23;;;13.20;99.90;;;11.82;95.18;101793.28;5060433;28;20409;-71
2023/05/21 03:22:02;;;;;;;1.15;0.90;;;13.10;99.90;;;11.80;96.11;101789.84;5074871;27;20615;-71
2023/05/21 03:24:31;;;;;;;5.70;1.88;;;13.00;99.90;;;11.80;96.63;101792.47;5063878;28;20139;-71
2023/05/21 03:27:00;;;;;;;1.13;1.00;;;13.00;99.90;;;11.85;98.30;101793.16;5063081;28;20525;-70
2023/05/21 03:29:27;;;;;;;1.50;0.90;;;13.00;99.90;;;11.90;97.71;101791.28;5064027;28;20062;-71
2023/05/21 03:31:53;;;;;;;2.00;1.27;;;13.00;99.90;;;11.96;100.00;101788.41;5053879;28;20103;-71
2023/05/21 03:34:19;;;;;;;1.60;1.25;;;13.10;99.90;;;12.09;99.98;101789.72;5064045;28;20105;-71
2023/05/21 03:36:46;;;;;;;2.60;1.55;;;13.20;99.90;;;12.17;100.00;101784.13;5063168;28;20036;-73
2023/05/21 03:39:12;;;;;;;9.32;1.83;;;13.30;99.90;;;12.30;100.00;101782.75;5064979;28;20714;-71
2023/05/21 03:41:38;;;;;;;3.45;1.50;;;13.40;99.90;;;12.41;100.00;101787.63;4999731;28;20034;-71
2023/05/21 03:44:04;;;;;;;1.55;0.80;;;13.50;99.90;;;12.53;100.00;101788.97;5054660;28;20034;-71
2023/05/21 03:46:30;;;;;;;5.45;1.33;;;13.60;99.90;;;12.62;100.00;101772.75;5071420;28;20074;-71
2023/05/21 03:48:57;;;;;;;4.82;1.45;;;13.70;99.90;;;12.77;99.43;101776.59;5064397;28;20644;-71
2023/05/21 03:51:23;;;;;;;1.95;0.88;;;13.80;99.90;;;12.87;99.38;101779.72;5063347;28;20098;-71
2023/05/21 03:53:50;;;;;;;2.85;1.27;;;14.20;99.90;;;13.23;98.71;101772.09;5050930;28;20037;-71
2023/05/21 03:56:16;;;;;;;9.10;1.58;;;14.70;99.90;;;13.71;96.46;101778.97;5000575;28;20509;-71
2023/05/21 03:58:42;;;;;;;2.60;1.63;;;15.20;99.90;;;14.30;93.36;101785.19;5063001;28;20045;-72
2023/05/21 04:01:09;;;;;;;3.78;2.15;;;15.50;99.90;;;14.62;90.39;101785.53;5081203;28;20045;-70
2023/05/21 04:03:35;;;;;;;2.25;1.10;;;15.90;99.90;;;15.05;87.64;101782.59;5061089;28;20026;-71
2023/05/21 04:06:04;;;;;;;2.38;1.42;;;16.40;99.90;;;15.67;84.96;101791.03;5035355;28;20048;-71
2023/05/21 04:08:30;;;;;;;1.85;0.98;;;16.90;99.90;;;16.33;81.70;101793.78;5053951;28;20103;-71
2023/05/21 04:10:56;;;;;;;1.33;0.95;;;17.50;99.90;;;16.86;78.55;101791.78;5061172;28;20125;-72
2023/05/21 04:13:22;;;;;;;3.20;1.70;;;18.00;99.90;;;17.44;75.94;101798.25;5063449;28;20063;-71
2023/05/21 04:15:48;;;;;;;2.30;1.17;;;18.50;99.90;;;18.07;73.44;101802.50;5064965;28;20059;-71
2023/05/21 04:18:15;;;;;;;4.68;2.10;;;18.90;99.90;;;18.70;75.64;101800.38;5064249;28;20049;-71
2023/05/21 04:20:42;;;;;;;2.42;1.27;;;19.20;99.90;;;19.03;74.91;101803.59;5062039;28;20589;-71
2023/05/21 04:23:09;;;;;;;5.05;1.50;;;19.60;99.90;;;19.18;72.14;101811.53;4992145;28;20128;-71
2023/05/21 04:25:35;;;;;;;2.35;1.50;;;20.00;99.90;;;19.73;71.08;101807.88;4999547;28;20037;-72
2023/05/21 04:28:01;;;;;;;3.83;1.42;;;20.40;99.90;;;20.40;71.01;101812.16;5063030;28;20045;-71
2023/05/21 04:30:26;;;;;;;;;;;20.40;99.90;;;20.09;76.60;101811.66;5067004;28;20401;-71
2023/05/21 04:32:53;;;;;;;1.80;1.27;;;19.90;99.90;;;18.88;72.41;101798.38;5041885;28;20393;-71
2023/05/21 04:35:19;;;;;;;3.60;1.45;;;19.60;99.90;;;19.34;74.34;101801.56;5062961;28;20063;-72
2023/05/21 04:37:45;;;;;;;2.67;1.63;;;19.80;99.90;;;20.10;72.73;101813.34;4998150;28;20041;-71
2023/05/21 04:40:17;;;;;;;;;;;19.90;99.90;;;21.18;69.14;101814.53;5064427;28;20054;-71
2023/05/21 04:42:47;;;;;;;2.05;1.38;;;21.00;99.90;;;21.80;64.02;101821.50;5059732;28;20432;-71
2023/05/21 04:45:13;;;;;;;2.65;1.52;;;21.50;99.90;;;22.19;62.79;101827.44;5054309;28;20026;-72
2023/05/21 04:47:39;;;;;;;2.67;1.58;;;21.40;99.90;;;21.37;63.70;101810.50;5063250;28;20033;-71
2023/05/21 04:50:06;;;;;;;1.90;1.52;;;20.80;99.90;;;19.57;66.04;101804.53;5063012;28;20036;-71
2023/05/21 04:52:33;;;;;;;1.75;1.35;;;20.30;99.90;;;19.07;69.06;101798.91;5045308;28;20038;-73
2023/05/21 04:55:00;;;;;;;2.42;1.60;;;19.70;99.90;;;18.44;70.84;101795.75;4998763;28;20087;-71
2023/05/21 04:57:27;;;;;;;2.03;1.52;;;19.10;99.90;;;17.74;72.40;101794.72;5001664;28;20085;-72
2023/05/21 04:59:52;;;;;;;2.97;1.70;;;19.00;99.90;;;18.75;71.30;101804.47;5044791;28;20066;-72
2023/05/21 05:02:19;;;;;;;5.95;1.88;;;19.20;99.90;;;19.77;67.91;101804.03;5063095;28;20026;-72
2023/05/21 05:04:45;;;;;;;2.58;1.58;;;19.70;99.90;;;20.88;66.77;101817.66;5045923;28;20046;-72
2023/05/21 05:07:11;;;;;;;3.58;1.50;;;20.30;99.90;;;20.36;65.16;101802.66;5062304;28;20030;-73
2023/05/21 05:09:37;;;;;;;3.38;1.60;;;20.10;99.90;;;19.45;67.10;101795.50;5063572;28;20026;-72
2023/05/21 05:12:03;;;;;;;4.43;1.58;;;19.80;99.90;;;18.97;68.65;101793.31;5063074;28;20041;-72
2023/05/21 05:14:29;;;;;;;3.90;1.58;;;19.70;99.90;;;19.78;69.06;101802.22;4999112;28;22276;-72
2023/05/21 05:16:59;;;;;;;2.80;2.00;;;20.30;99.90;;;21.82;64.81;101811.53;5062687;28;20177;-72
2023/05/21 05:19:27;;;;;;;4.45;1.92;;;21.20;99.90;;;23.09;60.02;101824.75;5061611;28;20056;-72
2023/05/21 05:21:53;;;;;;;3.40;1.67;;;22.10;99.90;;;24.14;57.79;101835.59;4998313;28;20041;-73
2023/05/21 05:24:19;;;;;;;2.40;1.60;;;23.10;99.90;;;25.30;54.79;101839.72;5000872;28;20046;-72
2023/05/21 05:26:45;;;;;;;;;;;23.20;99.90;;;26.10;52.83;101850.31;5045176;28;20039;-73
2023/05/21 05:29:10;;;;;;;3.25;1.60;;;24.30;99.90;;;25.38;52.03;101833.63;4999155;28;19922;-73
2023/05/21 05:31:36;;;;;;;;;;;24.20;99.90;;;25.43;51.06;101843.97;5000402;28;20041;-73
2023/05/21 05:34:02;;;;;;;2.60;1.80;;;24.40;99.90;;;25.22;51.40;101853.03;5066194;28;20429;-73
2023/05/21 05:36:28;;;;;;;2.88;1.90;;;24.30;99.90;;;25.36;52.38;101843.69;5064761;28;20038;-72
2023/05/21 05:38:53;;;;;;;;;;;24.40;99.90;;;25.84;50.02;101859.00;5002982;28;20106;-72
2023/05/21 05:41:19;;;;;;;3.20;1.63;;;24.80;99.90;;;26.09;49.48;101849.47;5002491;28;19949;-72
2023/05/21 05:43:45;;;;;;;1.63;1.33;;;24.80;99.90;;;26.12;49.23;101867.22;5065438;28;20040;-73
2023/05/21 05:46:11;;;;;;;3.33;1.60;;;25.00;99.90;;;26.26;49.55;101869.44;5066406;28;20054;-73
2023/05/21 05:48:37;;;;;;;;;;;25.00;99.90;;;25.93;48.31;101855.47;5066746;28;20390;-73
2023/05/21 05:51:04;;;;;;;3.00;1.65;;;25.30;99.90;;;27.07;48.69;101871.53;5002048;28;19943;-74
2023/05/21 05:53:31;;;;;;;3.17;2.22;;;25.40;99.90;;;26.36;48.45;101872.13;5041382;28;20459;-73
2023/05/21 05:55:56;;;;;;;2.72;1.67;;;25.60;99.90;;;27.06;48.70;101879.78;5045230;28;20035;-73
2023/05/21 05:58:22;;;;;;;5.60;2.25;;;26.20;99.90;;;28.10;47.09;101882.81;5058420;28;21192;-73
2023/05/21 06:00:48;;;;;;;;;;;26.30;99.90;;;28.19;44.92;101887.28;5067378;28;20112;-73
2023/05/21 06:03:14;;;;;;;3.53;1.90;;;26.50;98.30;;;26.81;47.12;101874.09;4991729;28;19924;-73
2023/05/21 06:05:40;;;;;;;;;;;26.40;99.40;;;28.03;45.91;101887.16;5066898;28;20033;-73
2023/05/21 06:08:05;;;;;;;4.45;2.78;;;26.80;98.50;;;28.08;46.12;101886.69;5000905;28;19933;-73
2023/05/21 06:10:31;;;;;;;3.53;2.42;;;27.20;99.50;;;28.39;44.74;101901.44;5065711;28;20071;-72
2023/05/21 06:12:57;;;;;;;3.05;2.00;;;27.40;98.40;;;28.20;45.93;101894.38;5047585;28;20050;-73
2023/05/21 06:15:23;;;;;;;2.65;1.67;;;27.10;97.40;;;26.73;47.57;101876.69;5041992;28;20429;-73
2023/05/21 06:17:49;;;;;;;7.90;1.80;;;26.90;98.60;;;26.97;48.01;101878.84;5066409;28;20085;-73
2023/05/21 06:20:15;;;;;;;3.03;1.30;;;26.90;98.20;;;27.48;47.27;101888.19;5057840;28;20045;-72
2023/05/21 06:22:41;;;;;;;3.83;1.95;;;27.40;98.50;;;28.49;46.01;101904.09;5065128;28;20046;-74
2023/05/21 06:25:09;;;;;;;2.30;1.85;;;28.10;98.50;;;30.24;43.92;101920.41;5061784;28;20077;-73
2023/05/21 06:27:36;;;;;;;3.10;1.85;;;29.10;96.80;;;30.76;42.51;101919.13;5030376;28;20049;-73
2023/05/21 06:30:03;;;;;;;3.70;2.38;;;29.50;95.70;;;30.65;42.26;101914.06;5040145;28;20038;-72
2023/05/21 06:32:29;;;;;;;3.25;2.20;;;29.70;94.70;;;30.37;42.20;101917.19;5062659;28;20041;-73
2023/05/21 06:34:55;;;;;;;6.10;3.22;;;30.40;94.90;;;31.67;40.66;101928.50;5065609;28;20030;-73
2023/05/21 06:37:21;;;;;;;3.63;2.17;;;30.70;94.00;;;31.77;41.78;101935.56;5000983;28;20037;-72
2023/05/21 06:39:46;;;;;;;2.80;2.30;;;31.20;94.70;;;32.52;40.61;101948.34;5067581;28;20031;-72
2023/05/21 06:42:12;;;;;;;4.00;2.42;;;31.80;92.70;;;32.36;39.78;101945.81;5056144;28;20049;-73
2023/05/21 06:44:38;;;;;;;6.28;2.97;;;31.90;91.80;;;32.28;39.58;101944.84;5065934;28;20034;-73
2023/05/21 06:47:04;;;;;;;3.85;2.00;;;31.60;93.00;;;32.08;41.06;101944.53;5049085;28;20053;-73
2023/05/21 06:49:31;;;;;;;2.42;1.75;;;31.60;91.40;;;30.66;41.26;101937.50;5065780;28;20038;-73
2023/05/21 06:51:57;;;;;;;3.22;2.30;;;30.40;91.60;;;28.58;44.75;101907.69;5063094;28;20052;-73
2023/05/21 06:54:23;;;;;;;6.75;2.70;;;29.90;93.50;;;28.89;44.09;101912.56;5065003;28;20703;-73
2023/05/21 06:56:49;;;;;;;4.40;2.42;;;29.50;93.80;;;29.29;44.47;101913.72;5046121;28;20048;-73
2023/05/21 06:59:15;;;;;;;4.28;2.58;;;29.40;93.50;;;29.15;44.61;101907.94;4993165;28;20038;-74
2023/05/21 07:01:41;;;;;;;4.15;2.40;;;29.20;94.20;;;28.94;45.21;101912.91;5062975;28;20068;-72
2023/05/21 07:04:08;;;;;;;4.15;2.50;;;29.40;93.90;;;29.44;44.20;101910.22;5054819;28;20030;-73
2023/05/21 07:06:34;;;;;;;7.53;2.53;;;29.80;93.50;;;29.93;42.94;101914.00;5064025;28;20034;-73
2023/05/21 07:09:01;;;;;;;5.30;2.55;;;30.30;94.30;;;30.97;42.30;101929.44;5000247;28;20210;-72
2023/05/21 07:11:28;;;;;;;3.25;2.20;;;30.10;92.80;;;29.31;43.90;101908.97;5065747;28;20022;-72
2023/05/21 07:13:59;;;;;;;4.85;2.75;;;30.10;93.40;;;29.77;43.83;101912.13;5063971;28;20053;-72
2023/05/21 07:16:24;;;;;;;3.30;2.15;;;30.20;93.50;;;29.97;43.31;101918.91;5064371;28;20033;-72
2023/05/21 07:18:50;;;;;;;3.60;2.40;;;29.90;93.90;;;29.30;44.25;101904.59;5064479;28;20121;-72
2023/05/21 07:21:16;;;;;;;4.00;2.38;;;29.60;93.40;;;28.34;46.44;101887.53;5065192;28;20525;-72
2023/05/21 07:23:42;;;;;;;3.83;2.35;;;29.20;94.40;;;28.42;46.55;101892.13;4992186;28;20040;-72
2023/05/21 07:26:10;;;;;;;3.90;2.35;;;28.90;94.30;;;28.03;46.29;101881.75;5067402;28;20124;-72
2023/05/21 07:28:35;;;;;;;4.68;2.70;;;28.40;95.00;;;27.24;47.85;101874.44;5064373;28;20510;-72
2023/05/21 07:31:01;;;;;;;3.60;2.30;;;27.70;95.80;;;26.32;50.34;101862.59;5064204;28;20110;-72
2023/05/21 07:33:27;;;;;;;7.65;2.67;;;27.10;96.50;;;25.57;50.90;101859.72;4999142;28;20038;-72
2023/05/21 07:35:53;;;;;;;4.20;2.53;;;26.30;97.00;;;24.87;52.65;101850.81;5063745;28;20052;-72
2023/05/21 07:38:19;;;;;;;3.10;2.13;;;25.60;98.20;;;23.95;55.09;101843.53;4999411;28;20530;-72
2023/05/21 07:40:45;;;;;;;3.78;2.45;;;25.10;99.50;;;23.77;56.05;101848.69;5065196;28;20398;-72
2023/05/21 07:43:11;;;;;;;4.03;2.58;;;24.50;99.90;;;23.10;57.61;101842.53;5062902;28;20042;-72
2023/05/21 07:45:37;;;;;;;4.70;2.67;;;24.20;99.90;;;22.90;58.67;101843.31;5070252;28;20053;-72
2023/05/21 07:48:03;;;;;;;4.65;2.63;;;24.00;99.90;;;23.05;58.38;101835.88;5054385;28;20038;-74
2023/05/21 07:50:30;;;;;;;3.63;2.42;;;23.90;99.90;;;22.97;58.67;101833.75;5000033;28;20055;-72
2023/05/21 07:52:58;;;;;;;3.38;2.45;;;24.00;99.90;;;23.58;58.42;101832.38;5054856;28;20490;-72
2023/05/21 07:55:23;;;;;;;4.07;2.33;;;24.20;99.90;;;23.65;57.69;101829.03;5063065;28;20520;-72
2023/05/21 07:57:51;;;;;;;4.80;2.28;;;24.30;99.90;;;24.28;56.32;101834.41;5064047;28;20042;-72
2023/05/21 08:00:17;;;;;;;3.83;2.05;;;24.60;99.90;;;24.43;55.82;101839.41;5063303;28;20025;-72
2023/05/21 08:02:43;;;;;;;3.47;2.45;;;24.80;99.90;;;24.76;55.42;101836.47;4999251;28;20030;-72
2023/05/21 08:05:09;;;;;;;3.38;2.28;;;25.20;99.90;;;25.46;54.75;101838.28;5061825;28;20922;-72
2023/05/21 08:07:36;;;;;;;3.65;2.45;;;25.90;99.90;;;26.61;52.39;101854.44;5054747;28;20041;-72
2023/05/21 08:10:02;;;;;;;4.60;2.45;;;26.50;99.90;;;26.79;51.10;101844.50;5064253;28;20038;-72
2023/05/21 08:12:27;;;;;;;3.75;2.72;;;26.90;99.20;;;26.99;49.83;101841.69;4998437;28;20042;-72
2023/05/21 08:14:53;;;;;;;3.45;2.15;;;27.00;98.80;;;27.20;50.44;101858.47;5065302;28;20034;-72
2023/05/21 08:17:19;;;;;;;3.15;2.10;;;27.50;98.90;;;28.16;49.25;101865.06;5000056;28;20030;-72
2023/05/21 08:19:45;;;;;;;5.07;1.90;;;28.00;97.40;;;28.39;47.64;101865.41;5000219;28;20030;-72
2023/05/21 08:22:11;;;;;;;3.95;2.83;;;28.20;96.90;;;28.49;47.50;101855.31;5064268;28;20054;-72
2023/05/21 08:24:37;;;;;;;6.15;2.67;;;28.60;97.10;;;28.84;46.77;101870.53;5063041;28;20108;-71
2023/05/21 08:27:03;;;;;;;4.13;2.72;;;28.60;96.40;;;28.38;47.04;101860.97;5064175;28;20034;-72
2023/05/21 08:29:28;;;;;;;3.15;2.40;;;28.70;95.70;;;28.38;47.06;101853.72;4999516;28;20048;-72
2023/05/21 08:31:55;;;;;;;4.40;2.10;;;28.80;95.90;;;28.59;46.95;101863.31;5062901;28;20490;-72
2023/05/21 08:34:21;;;;;;;2.72;2.17;;;28.60;96.30;;;28.34;47.45;101862.31;5054077;28;20034;-72
2023/05/21 08:36:48;;;;;;;3.08;1.92;;;28.50;96.10;;;28.10;48.28;101853.06;4998154;28;20094;-72
2023/05/21 08:39:14;;;;;;;4.50;1.92;;;28.30;95.80;;;27.54;48.57;101848.88;5053062;28;20038;-72
2023/05/21 08:41:43;;;;;;;3.88;2.47;;;28.10;95.80;;;27.24;49.14;101848.25;5054152;28;20034;-72
2023/05/21 08:44:11;;;;;;;4.55;2.55;;;27.90;96.50;;;27.15;49.83;101843.75;5068388;28;20507;-73
2023/05/21 08:46:40;;;;;;;4.38;2.05;;;27.70;96.90;;;27.03;50.56;101839.53;4992626;28;20030;-73
2023/05/21 08:49:11;;;;;;;3.95;2.60;;;27.50;97.10;;;26.27;51.04;101833.34;5062180;28;20030;-72
2023/05/21 08:51:38;;;;;;;5.85;2.13;;;27.10;98.10;;;26.04;52.50;101826.59;5061683;28;20540;-72
2023/05/21 08:54:06;;;;;;;4.22;2.10;;;26.80;97.50;;;25.87;51.91;101820.91;5052465;28;20033;-72
2023/05/21 08:56:34;;;;;;;2.65;2.20;;;26.80;98.80;;;25.94;52.82;101827.50;5062045;28;20109;-72
2023/05/21 08:59:01;;;;;;;4.20;2.17;;;26.50;97.90;;;25.64;52.48;101812.31;5055664;28;20087;-71
2023/05/21 09:01:28;;;;;;;3.63;2.30;;;26.50;98.70;;;25.81;52.90;101813.44;5046445;28;20030;-72
2023/05/21 09:03:56;;;;;;;5.15;2.20;;;26.50;98.90;;;25.91;52.99;101816.97;5065296;28;20048;-72
2023/05/21 09:06:26;;;;;;;2.88;1.90;;;26.50;99.40;;;25.55;53.24;101802.38;5044766;28;20044;-72
2023/05/21 09:09:11;;;;;;;2.97;2.10;;;26.60;99.20;;;26.20;52.98;101810.66;5066733;28;20034;-72
2023/05/21 09:11:38;;;;;;;3.95;2.22;;;26.90;98.70;;;26.50;52.31;101814.94;5065030;28;20053;-72
2023/05/21 09:14:05;;;;;;;2.70;1.85;;;26.90;98.50;;;26.27;52.33;101819.84;5062433;28;20695;-72
2023/05/21 09:16:31;;;;;;;3.40;2.33;;;26.90;98.50;;;26.29;51.54;101809.75;4995283;28;20034;-72
2023/05/21 09:18:57;;;;;;;3.08;1.90;;;26.80;98.30;;;25.92;52.98;101802.50;5004354;28;20052;-72
2023/05/21 09:21:25;;;;;;;3.25;1.70;;;26.90;99.30;;;26.62;52.58;101807.50;5096837;27;20049;-72
2023/05/21 09:24:03;;;;;;;3.58;2.40;;;27.10;97.80;;;26.59;51.36;101813.22;5068626;28;20053;-72
2023/05/21 09:26:29;;;;;;;3.75;2.25;;;27.30;97.60;;;26.91;50.45;101814.56;5067394;28;20034;-72
2023/05/21 09:28:59;;;;;;;6.18;2.17;;;27.50;97.90;;;27.19;50.47;101818.94;5074000;28;20041;-72
2023/05/21 09:31:28;;;;;;;5.70;2.95;;;27.40;97.40;;;26.58;51.39;101812.34;5003523;28;20170;-74
2023/05/21 09:34:00;;;;;;;2.75;2.03;;;27.50;97.80;;;27.13;50.94;101818.72;5001306;28;20042;-72
2023/05/21 09:36:28;;;;;;;3.85;1.92;;;27.70;97.50;;;27.34;49.91;101813.88;5058598;28;20038;-72
2023/05/21 09:38:54;;;;;;;4.15;2.10;;;27.70;97.10;;;27.11;50.48;101815.31;5065521;28;20030;-73
2023/05/21 09:41:36;;;;;;;5.03;1.77;;;27.80;96.90;;;27.27;49.16;101815.47;5069635;28;20398;-72
2023/05/21 09:44:06;;;;;;;2.83;1.77;;;27.80;95.90;;;26.93;49.69;101809.88;5050649;28;20397;-72
2023/05/21 09:46:42;;;;;;;2.78;1.70;;;27.80;96.50;;;27.11;49.44;101812.59;5048080;28;20049;-72
2023/05/21 09:49:25;;;;;;;2.43;2.20;;;27.80;97.40;;;27.56;49.75;101823.34;4996251;28;20167;-72
2023/05/21 09:52:01;;;;;;;2.75;2.13;;;27.80;96.90;;;27.16;49.63;101813.00;5045511;28;20269;-71
2023/05/21 09:54:34;;;;;;;6.20;1.88;;;27.80;95.70;;;26.96;49.68;101810.44;5064709;28;20045;-72
2023/05/21 09:57:03;;;;;;;4.93;2.63;;;27.80;96.70;;;27.07;49.22;101816.63;5063398;28;20057;-72
2023/05/21 09:59:42;;;;;;;3.90;2.08;;;27.90;96.90;;;27.65;48.39;101829.69;5070636;28;20041;-72
2023/05/21 10:02:22;;;;;;;2.25;1.90;;;28.20;96.40;;;27.85;48.08;101816.84;5004677;28;20037;-72
2023/05/21 10:04:50;;;;;;;3.03;1.80;;;28.40;96.30;;;28.02;48.38;101832.19;5050311;28;20041;-72
2023/05/21 10:07:24;;;;;;;4.47;2.05;;;28.50;96.10;;;27.85;47.71;101821.38;5059712;28;20034;-72
2023/05/21 10:10:00;;;;;;;3.40;2.08;;;28.50;96.00;;;27.79;48.64;101820.13;5066597;28;20034;-72
2023/05/21 10:12:31;;;;;;;2.50;2.00;;;28.50;95.60;;;27.97;48.60;101806.56;5069056;28;20091;-72
2023/05/21 10:15:13;;;;;;;3.30;1.77;;;28.60;96.00;;;28.12;47.70;101820.38;5065288;28;20036;-72
2023/05/21 10:17:39;;;;;;;3.38;2.30;;;28.50;95.80;;;28.03;48.20;101808.66;5051177;28;20030;-72